Terminal Aerodrome Forecast
Issued by NWS Portland, OR

Home | Current Version | Previous Version | Text Only | Print | Product List | Glossary On
Versions: 1 2 3 4 5 6 7 8 9 10 11 12 13 14 15
000
FTUS46 KPQR 210532
TAFSLE
TAF
KSLE 210532Z 2106/2206 17012KT P6SM BKN035 OVC040
     FM210800 17015G23KT P6SM OVC050
     FM211600 18014G22KT 4SM -RA BR OVC050
     FM212200 19013KT 4SM -RA BR OVC025
     FM220000 20010KT 6SM -RA BKN050=

USA.gov is the U.S. government's official web portal to all federal, state and local government web resources and services.